sensor_id;sensor_type;location;lat;lon;timestamp;P1;durP1;ratioP1;P2;durP2;ratioP2
38162;SDS011;23977;53.078;18.248;2022-09-09T00:32:13;10.98;;;8.30;;
38162;SDS011;23977;53.078;18.248;2022-09-09T00:34:49;13.48;;;8.45;;
38162;SDS011;23977;53.078;18.248;2022-09-09T00:37:16;12.60;;;8.32;;
38162;SDS011;23977;53.078;18.248;2022-09-09T00:39:44;14.13;;;8.88;;
38162;SDS011;23977;53.078;18.248;2022-09-09T00:42:17;13.25;;;9.00;;
38162;SDS011;23977;53.078;18.248;2022-09-09T02:01:34;12.23;;;8.98;;
38162;SDS011;23977;53.078;18.248;2022-09-09T02:04:17;13.95;;;9.60;;
38162;SDS011;23977;53.078;18.248;2022-09-09T02:09:29;13.02;;;9.60;;
38162;SDS011;23977;53.078;18.248;2022-09-09T02:12:08;16.20;;;9.95;;
38162;SDS011;23977;53.078;18.248;2022-09-09T02:14:39;13.40;;;9.40;;
38162;SDS011;23977;53.078;18.248;2022-09-09T04:49:38;21.27;;;17.58;;
38162;SDS011;23977;53.078;18.248;2022-09-09T04:52:04;20.55;;;17.58;;
38162;SDS011;23977;53.078;18.248;2022-09-09T04:54:30;21.92;;;17.65;;
38162;SDS011;23977;53.078;18.248;2022-09-09T04:56:55;20.25;;;16.83;;
38162;SDS011;23977;53.078;18.248;2022-09-09T04:59:21;21.27;;;17.30;;
38162;SDS011;23977;53.078;18.248;2022-09-09T05:01:47;21.30;;;17.80;;
38162;SDS011;23977;53.078;18.248;2022-09-09T05:04:14;22.58;;;18.55;;
38162;SDS011;23977;53.078;18.248;2022-09-09T05:06:41;19.98;;;17.10;;
38162;SDS011;23977;53.078;18.248;2022-09-09T05:09:07;22.10;;;17.65;;
38162;SDS011;23977;53.078;18.248;2022-09-09T05:11:33;22.98;;;18.25;;
38162;SDS011;23977;53.078;18.248;2022-09-09T05:14:02;21.65;;;17.63;;
38162;SDS011;23977;53.078;18.248;2022-09-09T05:16:27;21.00;;;17.08;;
38162;SDS011;23977;53.078;18.248;2022-09-09T05:18:53;24.48;;;19.05;;
38162;SDS011;23977;53.078;18.248;2022-09-09T05:21:19;23.25;;;18.67;;
38162;SDS011;23977;53.078;18.248;2022-09-09T05:23:45;22.80;;;18.60;;
38162;SDS011;23977;53.078;18.248;2022-09-09T05:26:15;23.13;;;18.88;;
38162;SDS011;23977;53.078;18.248;2022-09-09T05:28:41;20.45;;;17.83;;
38162;SDS011;23977;53.078;18.248;2022-09-09T05:31:07;24.05;;;18.25;;
38162;SDS011;23977;53.078;18.248;2022-09-09T05:33:39;24.58;;;19.00;;
38162;SDS011;23977;53.078;18.248;2022-09-09T05:36:10;24.48;;;19.90;;
38162;SDS011;23977;53.078;18.248;2022-09-09T05:38:36;24.25;;;18.90;;
38162;SDS011;23977;53.078;18.248;2022-09-09T05:41:02;25.90;;;20.00;;
38162;SDS011;23977;53.078;18.248;2022-09-09T05:43:28;27.65;;;20.40;;
38162;SDS011;23977;53.078;18.248;2022-09-09T05:46:01;28.15;;;19.20;;
38162;SDS011;23977;53.078;18.248;2022-09-09T05:48:30;28.63;;;20.02;;
38162;SDS011;23977;53.078;18.248;2022-09-09T05:50:56;26.50;;;19.85;;
38162;SDS011;23977;53.078;18.248;2022-09-09T05:53:21;25.40;;;19.42;;
38162;SDS011;23977;53.078;18.248;2022-09-09T05:55:47;23.77;;;18.20;;
38162;SDS011;23977;53.078;18.248;2022-09-09T05:58:13;27.52;;;19.02;;
38162;SDS011;23977;53.078;18.248;2022-09-09T06:00:40;29.15;;;18.60;;
38162;SDS011;23977;53.078;18.248;2022-09-09T06:03:06;24.55;;;18.38;;
38162;SDS011;23977;53.078;18.248;2022-09-09T06:05:31;26.98;;;18.70;;
38162;SDS011;23977;53.078;18.248;2022-09-09T06:07:56;28.67;;;19.00;;
38162;SDS011;23977;53.078;18.248;2022-09-09T06:10:22;43.10;;;26.90;;
38162;SDS011;23977;53.078;18.248;2022-09-09T06:12:48;39.55;;;25.52;;
38162;SDS011;23977;53.078;18.248;2022-09-09T06:15:13;24.63;;;17.98;;
38162;SDS011;23977;53.078;18.248;2022-09-09T06:17:38;26.63;;;17.98;;
38162;SDS011;23977;53.078;18.248;2022-09-09T06:20:04;31.60;;;19.33;;
38162;SDS011;23977;53.078;18.248;2022-09-09T06:22:31;29.50;;;18.63;;
38162;SDS011;23977;53.078;18.248;2022-09-09T06:24:56;26.25;;;17.80;;
38162;SDS011;23977;53.078;18.248;2022-09-09T06:27:22;30.58;;;18.73;;
38162;SDS011;23977;53.078;18.248;2022-09-09T06:29:47;29.08;;;19.10;;
38162;SDS011;23977;53.078;18.248;2022-09-09T06:32:13;27.48;;;16.52;;
38162;SDS011;23977;53.078;18.248;2022-09-09T06:34:39;29.23;;;18.85;;
38162;SDS011;23977;53.078;18.248;2022-09-09T06:37:05;31.23;;;18.58;;
38162;SDS011;23977;53.078;18.248;2022-09-09T06:39:31;29.80;;;17.85;;
38162;SDS011;23977;53.078;18.248;2022-09-09T06:41:57;28.10;;;17.92;;
38162;SDS011;23977;53.078;18.248;2022-09-09T06:44:23;28.80;;;18.00;;
38162;SDS011;23977;53.078;18.248;2022-09-09T06:46:52;26.88;;;16.48;;
38162;SDS011;23977;53.078;18.248;2022-09-09T06:49:17;24.33;;;16.63;;
38162;SDS011;23977;53.078;18.248;2022-09-09T06:51:43;29.30;;;17.67;;
38162;SDS011;23977;53.078;18.248;2022-09-09T06:54:09;30.73;;;17.00;;
38162;SDS011;23977;53.078;18.248;2022-09-09T06:56:36;32.22;;;17.88;;
38162;SDS011;23977;53.078;18.248;2022-09-09T06:59:03;27.70;;;16.55;;
38162;SDS011;23977;53.078;18.248;2022-09-09T07:01:29;28.33;;;16.70;;
38162;SDS011;23977;53.078;18.248;2022-09-09T07:03:57;33.85;;;20.08;;
38162;SDS011;23977;53.078;18.248;2022-09-09T07:06:28;33.35;;;20.80;;
38162;SDS011;23977;53.078;18.248;2022-09-09T07:08:55;28.85;;;18.13;;
38162;SDS011;23977;53.078;18.248;2022-09-09T07:11:21;30.77;;;19.77;;
38162;SDS011;23977;53.078;18.248;2022-09-09T07:13:47;27.15;;;16.48;;
38162;SDS011;23977;53.078;18.248;2022-09-09T07:16:14;28.08;;;17.60;;
38162;SDS011;23977;53.078;18.248;2022-09-09T07:18:41;28.15;;;16.95;;
38162;SDS011;23977;53.078;18.248;2022-09-09T07:21:07;35.63;;;18.98;;
38162;SDS011;23977;53.078;18.248;2022-09-09T07:23:33;31.65;;;17.00;;
38162;SDS011;23977;53.078;18.248;2022-09-09T07:26:01;28.52;;;17.08;;
38162;SDS011;23977;53.078;18.248;2022-09-09T07:28:27;26.30;;;16.70;;
38162;SDS011;23977;53.078;18.248;2022-09-09T07:30:57;28.73;;;17.88;;
38162;SDS011;23977;53.078;18.248;2022-09-09T07:33:23;28.85;;;17.23;;
38162;SDS011;23977;53.078;18.248;2022-09-09T07:35:50;35.42;;;18.58;;
38162;SDS011;23977;53.078;18.248;2022-09-09T07:38:15;30.75;;;18.60;;
38162;SDS011;23977;53.078;18.248;2022-09-09T07:40:41;32.42;;;18.83;;
38162;SDS011;23977;53.078;18.248;2022-09-09T07:43:06;29.95;;;17.50;;
38162;SDS011;23977;53.078;18.248;2022-09-09T07:45:33;30.90;;;17.90;;
38162;SDS011;23977;53.078;18.248;2022-09-09T07:47:58;28.77;;;17.00;;
38162;SDS011;23977;53.078;18.248;2022-09-09T07:50:24;31.38;;;17.60;;
38162;SDS011;23977;53.078;18.248;2022-09-09T07:52:52;31.33;;;18.40;;
38162;SDS011;23977;53.078;18.248;2022-09-09T07:55:19;31.08;;;17.63;;
38162;SDS011;23977;53.078;18.248;2022-09-09T07:57:44;30.77;;;17.02;;
38162;SDS011;23977;53.078;18.248;2022-09-09T08:00:12;30.63;;;17.10;;
38162;SDS011;23977;53.078;18.248;2022-09-09T08:02:40;30.77;;;17.30;;
38162;SDS011;23977;53.078;18.248;2022-09-09T08:05:06;31.00;;;17.30;;
38162;SDS011;23977;53.078;18.248;2022-09-09T08:07:31;31.08;;;16.77;;
38162;SDS011;23977;53.078;18.248;2022-09-09T08:09:57;27.80;;;17.40;;
38162;SDS011;23977;53.078;18.248;2022-09-09T08:12:22;31.77;;;17.95;;
38162;SDS011;23977;53.078;18.248;2022-09-09T08:14:49;31.40;;;17.70;;
38162;SDS011;23977;53.078;18.248;2022-09-09T08:17:14;33.58;;;20.20;;
38162;SDS011;23977;53.078;18.248;2022-09-09T08:19:40;31.77;;;18.13;;
38162;SDS011;23977;53.078;18.248;2022-09-09T08:22:06;32.05;;;18.90;;
38162;SDS011;23977;53.078;18.248;2022-09-09T08:24:32;34.58;;;20.23;;
38162;SDS011;23977;53.078;18.248;2022-09-09T08:26:58;32.38;;;19.02;;
38162;SDS011;23977;53.078;18.248;2022-09-09T08:29:24;32.97;;;19.70;;
38162;SDS011;23977;53.078;18.248;2022-09-09T08:31:54;31.75;;;17.92;;
38162;SDS011;23977;53.078;18.248;2022-09-09T08:34:20;31.05;;;19.58;;
38162;SDS011;23977;53.078;18.248;2022-09-09T08:36:47;32.47;;;18.70;;
38162;SDS011;23977;53.078;18.248;2022-09-09T08:39:14;31.50;;;19.13;;
38162;SDS011;23977;53.078;18.248;2022-09-09T08:52:13;32.90;;;20.05;;
38162;SDS011;23977;53.078;18.248;2022-09-09T08:54:41;32.95;;;19.58;;
38162;SDS011;23977;53.078;18.248;2022-09-09T08:57:09;32.92;;;20.92;;
38162;SDS011;23977;53.078;18.248;2022-09-09T08:59:36;36.72;;;21.30;;
38162;SDS011;23977;53.078;18.248;2022-09-09T09:09:49;33.97;;;21.13;;
38162;SDS011;23977;53.078;18.248;2022-09-09T09:12:25;33.97;;;20.42;;
38162;SDS011;23977;53.078;18.248;2022-09-09T09:14:52;38.30;;;21.38;;
38162;SDS011;23977;53.078;18.248;2022-09-09T09:17:26;35.15;;;20.67;;
38162;SDS011;23977;53.078;18.248;2022-09-09T09:19:56;33.33;;;20.83;;
38162;SDS011;23977;53.078;18.248;2022-09-09T09:22:39;35.88;;;22.83;;
38162;SDS011;23977;53.078;18.248;2022-09-09T09:27:46;36.20;;;21.70;;
38162;SDS011;23977;53.078;18.248;2022-09-09T09:30:22;35.88;;;22.98;;
38162;SDS011;23977;53.078;18.248;2022-09-09T09:32:53;34.75;;;21.92;;
38162;SDS011;23977;53.078;18.248;2022-09-09T09:35:23;37.20;;;23.65;;
38162;SDS011;23977;53.078;18.248;2022-09-09T09:37:50;32.67;;;20.60;;
38162;SDS011;23977;53.078;18.248;2022-09-09T09:40:17;35.33;;;20.33;;
38162;SDS011;23977;53.078;18.248;2022-09-09T09:42:57;33.90;;;21.98;;
38162;SDS011;23977;53.078;18.248;2022-09-09T09:45:42;36.50;;;22.42;;
38162;SDS011;23977;53.078;18.248;2022-09-09T09:48:12;34.95;;;21.02;;
38162;SDS011;23977;53.078;18.248;2022-09-09T09:50:49;33.92;;;22.92;;
38162;SDS011;23977;53.078;18.248;2022-09-09T09:53:27;39.42;;;24.20;;
38162;SDS011;23977;53.078;18.248;2022-09-09T09:56:00;41.95;;;25.75;;
38162;SDS011;23977;53.078;18.248;2022-09-09T09:58:27;40.45;;;24.30;;
38162;SDS011;23977;53.078;18.248;2022-09-09T10:00:57;79.82;;;49.47;;
38162;SDS011;23977;53.078;18.248;2022-09-09T10:03:25;37.50;;;24.33;;
38162;SDS011;23977;53.078;18.248;2022-09-09T10:05:52;37.92;;;24.15;;
38162;SDS011;23977;53.078;18.248;2022-09-09T10:08:18;35.47;;;22.42;;
38162;SDS011;23977;53.078;18.248;2022-09-09T10:13:33;33.83;;;21.92;;
38162;SDS011;23977;53.078;18.248;2022-09-09T10:16:06;37.00;;;23.40;;
38162;SDS011;23977;53.078;18.248;2022-09-09T10:21:21;36.63;;;22.13;;
38162;SDS011;23977;53.078;18.248;2022-09-09T10:35:01;34.97;;;22.42;;
38162;SDS011;23977;53.078;18.248;2022-09-09T10:40:20;32.03;;;20.02;;
38162;SDS011;23977;53.078;18.248;2022-09-09T10:42:47;31.25;;;19.30;;
38162;SDS011;23977;53.078;18.248;2022-09-09T10:45:15;31.52;;;20.73;;
38162;SDS011;23977;53.078;18.248;2022-09-09T10:50:33;34.08;;;21.40;;
38162;SDS011;23977;53.078;18.248;2022-09-09T10:55:45;30.90;;;18.55;;
38162;SDS011;23977;53.078;18.248;2022-09-09T10:58:30;27.38;;;17.60;;
38162;SDS011;23977;53.078;18.248;2022-09-09T11:01:01;24.88;;;16.75;;
38162;SDS011;23977;53.078;18.248;2022-09-09T11:03:32;29.10;;;18.95;;
38162;SDS011;23977;53.078;18.248;2022-09-09T11:06:03;27.95;;;18.85;;
38162;SDS011;23977;53.078;18.248;2022-09-09T11:08:30;30.80;;;20.27;;
38162;SDS011;23977;53.078;18.248;2022-09-09T11:11:03;31.77;;;20.05;;
38162;SDS011;23977;53.078;18.248;2022-09-09T11:18:41;27.83;;;20.10;;
38162;SDS011;23977;53.078;18.248;2022-09-09T11:21:10;30.98;;;20.55;;
38162;SDS011;23977;53.078;18.248;2022-09-09T11:23:42;26.58;;;17.80;;
38162;SDS011;23977;53.078;18.248;2022-09-09T11:26:11;28.55;;;18.40;;
38162;SDS011;23977;53.078;18.248;2022-09-09T11:28:52;28.10;;;19.00;;
38162;SDS011;23977;53.078;18.248;2022-09-09T11:41:40;25.58;;;18.75;;
38162;SDS011;23977;53.078;18.248;2022-09-09T11:44:12;30.58;;;20.17;;
38162;SDS011;23977;53.078;18.248;2022-09-09T11:46:41;30.27;;;20.83;;
38162;SDS011;23977;53.078;18.248;2022-09-09T11:49:25;27.38;;;18.08;;
38162;SDS011;23977;53.078;18.248;2022-09-09T11:51:51;25.23;;;18.45;;
38162;SDS011;23977;53.078;18.248;2022-09-09T11:54:26;32.22;;;22.15;;
38162;SDS011;23977;53.078;18.248;2022-09-09T11:56:54;29.08;;;20.50;;
38162;SDS011;23977;53.078;18.248;2022-09-09T12:38:32;29.33;;;19.92;;
38162;SDS011;23977;53.078;18.248;2022-09-09T12:40:59;28.38;;;19.77;;
38162;SDS011;23977;53.078;18.248;2022-09-09T12:43:26;28.30;;;18.48;;
38162;SDS011;23977;53.078;18.248;2022-09-09T16:20:06;26.08;;;16.70;;
38162;SDS011;23977;53.078;18.248;2022-09-09T16:22:33;23.88;;;16.58;;
38162;SDS011;23977;53.078;18.248;2022-09-09T16:24:59;21.30;;;16.40;;
38162;SDS011;23977;53.078;18.248;2022-09-09T16:27:25;22.95;;;15.85;;
38162;SDS011;23977;53.078;18.248;2022-09-09T16:29:51;24.58;;;17.48;;
38162;SDS011;23977;53.078;18.248;2022-09-09T16:32:16;23.35;;;17.42;;
38162;SDS011;23977;53.078;18.248;2022-09-09T16:34:42;21.63;;;16.77;;
38162;SDS011;23977;53.078;18.248;2022-09-09T16:37:08;22.38;;;16.77;;
38162;SDS011;23977;53.078;18.248;2022-09-09T16:39:34;23.42;;;17.13;;
38162;SDS011;23977;53.078;18.248;2022-09-09T16:42:00;24.10;;;17.58;;
38162;SDS011;23977;53.078;18.248;2022-09-09T16:44:25;28.25;;;18.65;;
38162;SDS011;23977;53.078;18.248;2022-09-09T16:46:52;25.45;;;18.80;;
38162;SDS011;23977;53.078;18.248;2022-09-09T16:49:23;23.33;;;17.67;;
38162;SDS011;23977;53.078;18.248;2022-09-09T16:51:49;25.83;;;19.23;;
38162;SDS011;23977;53.078;18.248;2022-09-09T16:54:19;27.05;;;18.92;;
38162;SDS011;23977;53.078;18.248;2022-09-09T16:56:46;27.25;;;20.20;;
38162;SDS011;23977;53.078;18.248;2022-09-09T16:59:16;27.67;;;19.65;;
